METAR Data
IDs: Format: Raw Decoded Include TAF

Data at: 1413 UTC 14 Dec 2019

KM19 141356Z AUTO 17003KT 3SM BR CLR 02/02 A2980 RMK AO2 SLP091 T00220022
KM19 141256Z AUTO 21004KT 3SM BR CLR 02/02 A2979 RMK AO2 SLP088 T00170017
KM19 141156Z AUTO 20008KT 6SM BR BKN100 OVC120 03/03 A2978 RMK AO2 SLP084 60000 T00280028 10028 20000 55005
KM19 141056Z AUTO 16008KT 5SM BR FEW075 BKN095 03/03 A2974 RMK AO2 UPB36E55 SLP072 P0000 T00280028
KM19 141024Z AUTO 22005KT 5SM BR FEW001 BKN090 OVC110 02/02 A2979 RMK AO2
KM19 141013Z AUTO 17006KT 5SM BR BKN001 OVC110 02/02 A2977 RMK AO2
KM19 141005Z AUTO 17006KT 2SM BR BKN001 OVC110 01/01 A2978 RMK AO2
KM19 140956Z AUTO 16007KT 1SM BR BKN001 OVC110 01/01 A2978 RMK AO2 SLP085 T00060006
KM19 140946Z AUTO 19003KT 2SM BR BKN001 01/01 A2979 RMK AO2 VIS 1 1/4V5
KM19 140941Z AUTO 20004KT 1SM BR BKN001 01/01 A2979 RMK AO2
KM19 140919Z AUTO 00000KT 1/2SM FG OVC001 01/01 A2980 RMK AO2
KM19 140912Z AUTO 21005KT 1/4SM FG OVC001 01/01 A2980 RMK AO2
KM19 140856Z AUTO 20003KT 1/2SM FG OVC001 01/01 A2979 RMK AO2 SLP089 T00060006 55005
KM19 140848Z AUTO 00000KT 1/2SM FG OVC001 01/01 A2979 RMK AO2
KM19 140840Z AUTO 22003KT 1SM BR OVC001 01/01 A2980 RMK AO2 VIS 1/4V5
KM19 140829Z AUTO 00000KT 1/2SM FG OVC001 01/01 A2979 RMK AO2
KM19 140812Z AUTO 00000KT 1/4SM FG OVC001 01/01 A2978 RMK AO2
KM19 140756Z AUTO 19003KT 1/2SM FG OVC001 01/01 A2979 RMK AO2 SLP089 T00060006
KM19 140753Z AUTO 19004KT 3/4SM BR OVC001 01/01 A2979 RMK AO2
KM19 140742Z AUTO 18004KT 3/4SM BR OVC003 01/01 A2979 RMK AO2
KM19 140727Z AUTO 19004KT 1 1/2SM BR BKN003 00/00 A2979 RMK AO2 VIS 3/4V5
KM19 140712Z AUTO 18003KT 1 1/4SM BR BKN001 01/01 A2980 RMK AO2 VIS 3/4V5
KM19 140707Z AUTO 17003KT 3/4SM BR BKN001 01/01 A2980 RMK AO2
KM19 140656Z AUTO 00000KT 1/4SM FG OVC001 01/01 A2981 RMK AO2 SLP094 T00060006
KM19 140647Z AUTO 00000KT 3/4SM BR OVC001 00/00 A2981 RMK AO2
KM19 140556Z AUTO 00000KT 1/4SM FG OVC001 01/01 A2983 RMK AO2 SLP102 T00110011 10072 20011 400890011 58006
KM19 140510Z AUTO 00000KT 1/4SM FG BKN001 02/02 A2984 RMK AO2
KM19 140456Z AUTO 00000KT 1/4SM FG VV003 02/02 A2984 RMK AO2 SLP105 T00170017
KM19 140451Z AUTO 00000KT 1/4SM FG VV003 02/02 A2984 RMK AO2
KM19 140444Z AUTO 00000KT 1/2SM FG CLR 03/03 A2985 RMK AO2
KM19 140441Z AUTO 00000KT 3/4SM BR VV003 03/03 A2985 RMK AO2
KM19 140437Z AUTO 00000KT 1 1/2SM BR FEW003 03/03 A2985 RMK AO2 VIS 3/4V5
KM19 140356Z AUTO 25003KT 4SM BR CLR 03/03 A2985 RMK AO2 SLP109 T00330033
KM19 140256Z AUTO 00000KT 9SM CLR 04/04 A2985 RMK AO2 SLP109 T00440044 58001
KM19 140156Z AUTO 00000KT 5SM BR FEW120 04/04 A2986 RMK AO2 SLP111 T00440044
KM19 140154Z AUTO 00000KT 3SM BR FEW120 04/04 A2986 RMK AO2
KM19 140141Z AUTO 00000KT 1 3/4SM BR FEW120 04/04 A2986 RMK AO2 VIS 1/2V5
KM19 140056Z AUTO 34003KT 8SM FEW120 05/05 A2986 RMK AO2 SLP112 T00500050
KM19 132356Z AUTO 08003KT 10SM FEW050 07/07 A2986 RMK AO2 SLP109 T00720067 10089 20067 58000
KM19 132256Z AUTO 00000KT 10SM OVC050 08/06 A2986 RMK AO2 SLP111 T00830061
KM19 132156Z AUTO 18003KT 10SM FEW070 OVC090 09/06 A2986 RMK AO2 SLP111 T00890056
KM19 132056Z AUTO 18005KT 10SM CLR 09/06 A2986 RMK AO2 SLP110 T00890056 56027
KM19 132010Z AUTO 18004KT 10SM SCT014 09/05 A2987 RMK AO2
KM19 131956Z AUTO 20004KT 10SM BKN014 BKN055 09/05 A2987 RMK AO2 SLP115 T00890050
KM19 131916Z AUTO 19005KT 10SM BKN014 09/06 A2989 RMK AO2
KM19 131908Z AUTO 19005KT 10SM SCT012 09/06 A2990 RMK AO2
KM19 131856Z AUTO VRB03KT 10SM BKN010 08/06 A2991 RMK AO2 SLP128 T00830056
KM19 131846Z AUTO 20003KT 10SM BKN010 08/06 A2991 RMK AO2 CIG 008V013
KM19 131756Z AUTO 18006KT 10SM OVC006 07/06 A2994 RMK AO2 CIG 006V011 SLP138 60000 T00670061 10067 20044 58025
KM19 131727Z AUTO 20008KT 10SM OVC006 07/06 A2996 RMK AO2
KM19 131633Z AUTO 21007KT 10SM OVC004 06/06 A2999 RMK AO2
KM19 131611Z AUTO 19005KT 6SM BR OVC002 06/06 A2999 RMK AO2
KM19 131604Z AUTO 20005KT 2 1/2SM BR OVC002 06/06 A3000 RMK AO2 VIS 1 1/2V5
KM19 131556Z AUTO 19007KT 3SM BR OVC002 06/06 A3000 RMK AO2 SLP160 T00560056
KM19 131456Z AUTO 20005KT 5SM BR OVC002 06/06 A3001 RMK AO2 SLP163 60000 T00560056 55003
KM19 131454Z AUTO 19006KT 4SM BR OVC002 06/06 A3001 RMK AO2
KM19 131445Z AUTO 19007KT 2SM BR OVC002 06/06 A3001 RMK AO2
KM19 131441Z AUTO 19006KT 1SM BR OVC002 06/06 A3001 RMK AO2
KM19 131418Z AUTO 19006KT 1/2SM FG OVC002 05/05 A3002 RMK AO2
KM19 131356Z AUTO 21005KT 1/4SM FG OVC002 05/05 A3002 RMK AO2 SLP167 T00500050
KM19 131344Z AUTO 18006KT 1/4SM FG OVC002 05/05 A3002 RMK AO2
KM19 131305Z AUTO 19008KT 1/2SM FG OVC002 04/04 A3002 RMK AO2
KM19 131256Z AUTO 20007KT 1SM BR OVC002 04/04 A3002 RMK AO2 RAE53 SLP167 P0000 T00440044
KM19 131252Z AUTO 20008KT 1SM -RA BR OVC002 04/04 A3002 RMK AO2 P0000
KM19 131229Z AUTO 20008KT 3/4SM -RA BR OVC002 04/04 A3002 RMK AO2 P0000
KM19 131156Z AUTO 18007KT 1/2SM -RA FG OVC002 04/04 A3002 RMK AO2 SLP166 P0000 60000 T00440044 10044 20017 56010
KM19 131154Z AUTO 18008KT 1/2SM -RA FG OVC002 04/04 A3002 RMK AO2 P0000
KM19 131135Z AUTO 21009KT 3/4SM -RA BR OVC002 04/04 A3003 RMK AO2 P0000
KM19 131056Z AUTO 20010KT 1/2SM -RA FG OVC002 04/04 A3003 RMK AO2 RAB23 SLP170 P0000 T00440039
KM19 131044Z AUTO 19009KT 1/2SM -RA FG OVC002 04/04 A3003 RMK AO2 RAB23 P0000
KM19 131036Z AUTO 18008KT 1SM -RA BR OVC002 04/04 A3003 RMK AO2 RAB23 P0000
KM19 131026Z AUTO 19009KT 3/4SM -RA BR OVC004 04/04 A3004 RMK AO2 RAB23 CIG 002V005 P0000
KM19 131022Z AUTO 19011KT 1 3/4SM BR OVC004 04/03 A3004 RMK AO2
KM19 131015Z AUTO 19006KT 10SM OVC004 04/03 A3004 RMK AO2
KM19 130956Z AUTO 19009KT 10SM OVC006 04/03 A3005 RMK AO2 SLP174 T00390033
KM19 130907Z AUTO 18007KT 10SM BKN008 OVC090 04/02 A3006 RMK AO2
KM19 130856Z AUTO 18007KT 10SM SCT008 OVC095 04/02 A3006 RMK AO2 SLP179 T00390022 58018
KM19 130756Z AUTO 19005KT 10SM OVC095 03/02 A3008 RMK AO2 SLP187 T00330017
KM19 130656Z AUTO 19006KT 10SM BKN095 03/01 A3011 RMK AO2 SLP194 T00280006
KM19 130556Z AUTO 16008KT 10SM CLR 02/00 A3011 RMK AO2 SLP198 T00170000 10050 20011 401111022 58012
KM19 130456Z AUTO 14003KT 10SM CLR 02/00 A3013 RMK AO2 SLP204 T00170000
KM19 130356Z AUTO 18005KT 10SM CLR 02/M01 A3014 RMK AO2 SLP206 T00221006
KM19 130256Z AUTO 00000KT 10SM CLR 02/01 A3015 RMK AO2 SLP209 T00220006 58006